Catawba Heights, North Carolina
Current Conditions -  °F | °C
As of 7:52 PM on Tuesday 21 Oct 2014 (Local Time) from KCLT Reporting Station
Few Clouds Few Clouds  
Wind Chill: 16°   Ceiling: Unl
Heat Index: 16°   Visibility: 10mi
Dew Point:   Wind: 6mph
Humidity: 47%   Direction: 350°N
Pressure: 29.94"   Gusts: NA
Location:  35.2342°N, 81.041°W
Report Text: KCLT 212352Z 35005KT 10SM FEW070 16/04 A2994 RMK AO2 SLP136 T01560044 10239 20156 53022
Loading
Personal Weather Stations






























Interactive Weather Map
Tropical Storm Tracking
New forecast layout! Learn more

10-Day Weather Forecast

Advertisements
Track Severe Weather on mobile